createdAt,value
2023-02-28T07:43:38.246Z,13.40
2023-02-28T07:46:13.874Z,10.80
2023-02-28T07:48:46.626Z,9.50
2023-02-28T07:51:19.129Z,16.10
2023-02-28T07:53:48.736Z,9.70
2023-02-28T07:56:17.014Z,10.10
2023-02-28T07:58:45.056Z,8.70
2023-02-28T08:01:12.555Z,9.80
2023-02-28T08:03:39.598Z,8.90
2023-02-28T08:06:07.606Z,9.40
2023-02-28T08:08:36.859Z,6.80
2023-02-28T08:11:06.050Z,11.20
2023-02-28T08:13:33.295Z,11.30
2023-02-28T08:16:03.518Z,10.20
2023-02-28T08:18:31.325Z,12.00
2023-02-28T08:20:58.156Z,5.60
2023-02-28T08:23:25.349Z,9.10
2023-02-28T08:29:01.083Z,7.70
2023-02-28T08:31:29.085Z,4.90
2023-02-28T08:33:59.845Z,8.60
2023-02-28T08:39:20.131Z,6.10
2023-02-28T08:41:49.429Z,9.40
2023-02-28T08:44:20.405Z,6.30
2023-02-28T08:46:48.909Z,7.30
2023-02-28T08:49:16.607Z,6.00
2023-02-28T08:51:43.982Z,4.30
2023-02-28T08:54:19.752Z,8.50
2023-02-28T08:56:47.794Z,8.00
2023-02-28T08:59:15.137Z,7.80
2023-02-28T09:01:42.306Z,8.50
2023-02-28T09:04:11.163Z,6.20
2023-02-28T09:06:38.071Z,9.10
2023-02-28T09:09:08.051Z,8.30
2023-02-28T09:11:36.451Z,7.30
2023-02-28T09:14:03.787Z,5.60
2023-02-28T09:16:35.909Z,8.60
2023-02-28T09:19:03.097Z,6.60
2023-02-28T09:21:30.788Z,6.20
2023-02-28T09:23:58.780Z,9.40
2023-02-28T09:26:32.330Z,8.40
2023-02-28T09:29:08.809Z,7.00
2023-02-28T09:31:35.972Z,8.90
2023-02-28T09:34:04.215Z,9.70
2023-02-28T09:36:41.798Z,7.70
2023-02-28T09:39:13.030Z,10.50
2023-02-28T09:41:49.005Z,7.70
2023-02-28T09:44:40.043Z,10.50
2023-02-28T09:47:14.121Z,6.00
2023-02-28T09:49:46.695Z,6.50
2023-02-28T09:52:19.702Z,9.50
2023-02-28T09:54:46.675Z,11.00
2023-02-28T09:57:25.968Z,7.90
2023-02-28T10:00:18.227Z,10.50
2023-02-28T10:03:35.875Z,8.30
2023-02-28T10:06:20.626Z,8.50
2023-02-28T10:09:17.604Z,5.30
2023-02-28T10:14:22.487Z,7.70
2023-02-28T10:17:11.132Z,7.10
2023-02-28T10:19:52.634Z,6.50
2023-02-28T10:22:39.866Z,6.20
2023-02-28T10:25:21.484Z,5.60
2023-02-28T10:27:50.078Z,6.00
2023-02-28T10:30:20.214Z,5.60
2023-02-28T10:32:50.686Z,8.40
2023-02-28T10:35:27.216Z,4.30
2023-02-28T10:38:05.514Z,9.70
2023-02-28T10:40:37.281Z,5.70
2023-02-28T10:43:20.377Z,7.20
2023-02-28T10:46:13.025Z,9.10
2023-02-28T10:48:50.375Z,9.30
2023-02-28T10:51:19.119Z,7.50
2023-02-28T10:54:02.484Z,8.70
2023-02-28T10:56:31.533Z,9.10
2023-02-28T10:59:08.452Z,6.40
2023-02-28T11:01:57.467Z,6.20
2023-02-28T11:04:32.789Z,8.40
2023-02-28T11:07:24.432Z,6.90
2023-02-28T11:09:55.229Z,6.20
2023-02-28T11:12:52.313Z,7.80
2023-02-28T11:15:51.392Z,5.60
2023-02-28T11:18:23.438Z,6.50
2023-02-28T11:20:54.372Z,4.40
2023-02-28T11:23:21.705Z,6.70
2023-02-28T11:25:51.007Z,5.30
2023-02-28T11:29:03.089Z,5.10
2023-02-28T11:31:31.455Z,9.20
2023-02-28T11:33:59.260Z,6.60
2023-02-28T11:36:29.453Z,4.90
2023-02-28T11:39:03.918Z,4.50
2023-02-28T11:42:13.657Z,7.30
2023-02-28T11:45:08.308Z,7.10
2023-02-28T11:48:24.192Z,5.60
2023-02-28T11:51:10.378Z,3.80
2023-02-28T11:56:50.816Z,5.60
2023-02-28T11:59:57.881Z,6.80
2023-02-28T12:03:00.091Z,6.60
2023-02-28T12:05:50.422Z,11.00
2023-02-28T12:08:28.908Z,4.80
2023-02-28T12:11:32.394Z,6.70
2023-02-28T12:14:39.134Z,8.40
2023-02-28T12:18:05.279Z,8.50
2023-02-28T12:21:02.328Z,7.10
2023-02-28T12:23:58.596Z,6.20
2023-02-28T12:29:32.003Z,4.80
2023-02-28T12:32:10.986Z,7.50
2023-02-28T12:34:40.187Z,4.00
2023-02-28T12:37:25.597Z,5.60
2023-02-28T12:39:59.366Z,4.00
2023-02-28T12:42:30.390Z,5.40
2023-02-28T12:45:28.212Z,5.00
2023-02-28T12:48:01.735Z,6.70
2023-02-28T12:50:32.761Z,6.60
2023-02-28T12:53:07.162Z,6.00
2023-02-28T12:56:05.902Z,4.60
2023-02-28T12:58:44.700Z,10.60
2023-02-28T13:01:48.294Z,6.60
2023-02-28T13:04:48.144Z,7.30
2023-02-28T13:07:31.568Z,15.20
2023-02-28T13:10:00.124Z,8.50
2023-02-28T13:12:27.230Z,6.20
2023-02-28T13:15:21.821Z,8.80
2023-02-28T13:17:49.784Z,6.00
2023-02-28T13:20:21.336Z,7.80
2023-02-28T13:25:40.098Z,8.90
2023-02-28T13:28:11.320Z,7.50
2023-02-28T13:30:56.171Z,8.50
2023-02-28T13:33:35.103Z,6.50
2023-02-28T13:36:09.071Z,6.90
2023-02-28T13:38:39.152Z,5.40
2023-02-28T13:41:37.032Z,7.30
2023-02-28T13:44:07.074Z,8.80
2023-02-28T13:46:49.599Z,8.10
2023-02-28T13:49:26.841Z,6.80
2023-02-28T13:52:07.207Z,7.20
2023-02-28T13:55:05.544Z,5.80
2023-02-28T13:57:41.698Z,8.80
2023-02-28T14:00:27.621Z,5.80
2023-02-28T14:03:13.719Z,7.40
2023-02-28T14:05:44.420Z,8.80
2023-02-28T14:08:21.335Z,6.70
2023-02-28T14:10:54.994Z,6.60
2023-02-28T14:13:48.544Z,5.60
2023-02-28T14:16:27.017Z,5.10
2023-02-28T14:19:10.980Z,5.60
2023-02-28T14:22:03.020Z,7.70
2023-02-28T14:25:22.868Z,6.80
2023-02-28T14:28:24.935Z,7.50
2023-02-28T14:31:03.961Z,7.00
2023-02-28T14:33:58.656Z,6.40
2023-02-28T14:36:32.696Z,4.60
2023-02-28T14:39:08.857Z,5.70
2023-02-28T14:41:41.782Z,7.30
2023-02-28T14:44:22.518Z,6.80
2023-02-28T14:46:52.754Z,7.00
2023-02-28T14:49:32.222Z,9.50
2023-02-28T14:52:28.483Z,6.80
2023-02-28T14:55:01.748Z,10.80
2023-02-28T14:57:33.956Z,7.40
2023-02-28T15:00:32.119Z,9.00
2023-02-28T15:03:24.715Z,12.90
2023-02-28T15:05:53.242Z,7.70
2023-02-28T15:08:20.504Z,12.20
2023-02-28T15:10:55.227Z,12.30
2023-02-28T15:13:39.424Z,12.00
2023-02-28T15:16:27.000Z,12.90
2023-02-28T15:18:59.130Z,10.90
2023-02-28T15:21:39.961Z,12.70
2023-02-28T15:27:01.028Z,13.80
2023-02-28T15:29:29.152Z,16.70
2023-02-28T15:32:03.917Z,14.80
2023-02-28T15:34:52.455Z,25.00
2023-02-28T15:37:45.806Z,16.40
2023-02-28T15:40:38.688Z,22.00
2023-02-28T15:43:19.694Z,24.60
2023-02-28T15:45:46.998Z,29.80
2023-02-28T15:48:41.622Z,30.20
2023-02-28T15:51:09.574Z,31.80
2023-02-28T15:53:40.323Z,29.00
2023-02-28T15:58:41.949Z,36.70
2023-02-28T16:04:17.586Z,43.70
2023-02-28T16:07:00.734Z,51.40
2023-02-28T16:09:34.288Z,45.10
2023-02-28T16:12:03.563Z,45.10
2023-02-28T16:14:31.203Z,39.40
2023-02-28T16:17:04.303Z,35.60
2023-02-28T16:19:33.196Z,25.20
2023-02-28T16:22:01.486Z,24.30
2023-02-28T16:24:28.572Z,26.30
2023-02-28T16:27:30.933Z,53.30
2023-02-28T16:29:58.077Z,55.10
2023-02-28T16:32:24.918Z,25.50
2023-02-28T16:34:53.088Z,22.50
2023-02-28T16:37:20.395Z,12.80
2023-02-28T16:39:48.199Z,11.40
2023-02-28T16:42:26.768Z,22.30
2023-02-28T16:44:55.825Z,15.80
2023-02-28T16:47:23.303Z,23.00
2023-02-28T16:55:21.913Z,23.20
2023-02-28T16:57:52.422Z,22.20
2023-02-28T17:00:19.523Z,20.60
2023-02-28T17:02:46.772Z,18.00
2023-02-28T17:05:37.961Z,12.50
2023-02-28T17:10:51.668Z,27.50
2023-02-28T17:13:24.070Z,42.70
2023-02-28T17:15:51.039Z,44.00
2023-02-28T17:18:21.819Z,39.10
2023-02-28T17:20:53.279Z,29.90
2023-02-28T17:23:20.319Z,27.20
2023-02-28T17:25:56.319Z,35.20
2023-02-28T17:28:25.361Z,28.10
2023-02-28T17:30:52.640Z,22.90
2023-02-28T17:33:19.963Z,25.90
2023-02-28T17:35:46.761Z,32.70
2023-02-28T17:38:18.166Z,29.10
2023-02-28T17:40:45.040Z,29.80
2023-02-28T17:44:45.384Z,33.30
2023-02-28T18:18:50.480Z,18.70
2023-02-28T18:22:08.309Z,24.80
2023-02-28T19:05:41.642Z,21.90
2023-02-28T19:09:28.289Z,16.50
2023-02-28T20:10:38.533Z,21.90
2023-02-28T20:13:31.104Z,20.70
2023-02-28T21:10:03.864Z,27.00
2023-02-28T21:13:21.557Z,21.40
2023-02-28T21:20:31.980Z,28.70
2023-02-28T21:23:48.632Z,30.40
2023-02-28T22:57:11.793Z,26.80
2023-02-28T23:00:54.658Z,22.70
